Time;durP1;ratioP1;P1;durP2;ratioP2;P2;SDS_P1;SDS_P2;PMS_P1;PMS_P2;Temp;Humidity;BMP_temperature;BMP_pressure;BME280_temperature;BME280_humidity;BME280_pressure;Samples;Min_cycle;Max_cycle;Signal;HPM_P1;HPM_P2
2021/07/27 00:00:30;;;;;;;27.60;17.67;;;;;;;;;;4683445;30;20611;-79
2021/07/27 00:02:55;;;;;;;29.17;18.20;;;;;;;;;;4661302;30;20132;-78
2021/07/27 00:05:21;;;;;;;29.38;18.15;;;;;;;;;;4670951;30;20108;-78
2021/07/27 00:07:46;;;;;;;29.80;17.88;;;;;;;;;;4669984;30;20512;-79
2021/07/27 00:10:12;;;;;;;29.20;18.35;;;;;;;;;;4661785;30;20057;-79
2021/07/27 00:12:37;;;;;;;30.02;18.73;;;;;;;;;;4677129;30;20510;-78
2021/07/27 00:15:03;;;;;;;31.08;19.40;;;;;;;;;;4687654;30;20038;-78
2021/07/27 00:17:29;;;;;;;30.73;18.23;;;;;;;;;;4668228;30;20033;-78
2021/07/27 00:19:56;;;;;;;29.80;19.33;;;;;;;;;;4684212;30;20482;-78
2021/07/27 00:22:22;;;;;;;30.55;19.95;;;;;;;;;;4665482;30;20065;-79
2021/07/27 00:24:47;;;;;;;31.58;20.25;;;;;;;;;;4663360;30;20532;-78
2021/07/27 00:27:12;;;;;;;28.95;19.48;;;;;;;;;;4661994;30;20045;-78
2021/07/27 00:29:38;;;;;;;32.15;20.73;;;;;;;;;;4665597;30;20068;-78
2021/07/27 00:32:03;;;;;;;32.65;20.38;;;;;;;;;;4671202;30;20129;-78
2021/07/27 00:34:29;;;;;;;31.52;20.52;;;;;;;;;;4670843;30;20038;-79
2021/07/27 00:36:54;;;;;;;33.92;20.60;;;;;;;;;;4673335;30;20440;-79
2021/07/27 00:39:20;;;;;;;33.65;21.20;;;;;;;;;;4659704;30;20529;-79
2021/07/27 00:41:45;;;;;;;35.13;23.95;;;;;;;;;;4670940;30;20562;-78
2021/07/27 00:44:10;;;;;;;35.40;22.52;;;;;;;;;;4675786;30;20537;-79
2021/07/27 00:46:36;;;;;;;34.80;23.70;;;;;;;;;;4669444;30;20068;-79
2021/07/27 00:49:01;;;;;;;37.28;23.88;;;;;;;;;;4666691;30;20046;-79
2021/07/27 00:51:28;;;;;;;36.35;23.13;;;;;;;;;;4676776;30;20038;-79
2021/07/27 00:53:54;;;;;;;38.17;25.17;;;;;;;;;;4686824;30;20818;-79
2021/07/27 00:56:20;;;;;;;35.85;24.75;;;;;;;;;;4672501;30;20208;-79
2021/07/27 00:58:45;;;;;;;38.05;25.30;;;;;;;;;;4668906;30;20042;-79
2021/07/27 01:01:11;;;;;;;40.60;27.00;;;;;;;;;;4662465;30;20045;-79
2021/07/27 01:03:38;;;;;;;38.20;26.25;;;;;;;;;;4655888;30;20155;-79
2021/07/27 01:06:04;;;;;;;40.38;27.08;;;;;;;;;;4669473;30;20041;-79
2021/07/27 01:08:30;;;;;;;36.03;26.00;;;;;;;;;;4695431;30;20052;-78
2021/07/27 01:10:56;;;;;;;37.75;26.60;;;;;;;;;;4673441;30;20116;-79
2021/07/27 01:13:21;;;;;;;42.70;27.55;;;;;;;;;;4689912;30;20105;-79
2021/07/27 01:15:46;;;;;;;35.67;25.90;;;;;;;;;;4663811;30;20052;-78
2021/07/27 01:18:20;;;;;;;37.85;25.65;;;;;;;;;;4669491;30;20575;-78
2021/07/27 01:39:44;;;;;;;39.17;25.98;;;;;;;;;;4692020;30;20136;-79
2021/07/27 01:42:14;;;;;;;36.78;25.48;;;;;;;;;;4665517;30;20045;-79
2021/07/27 01:44:44;;;;;;;37.60;26.90;;;;;;;;;;4673525;30;20050;-79
2021/07/27 01:47:18;;;;;;;38.03;26.75;;;;;;;;;;4674517;30;20045;-78
2021/07/27 01:49:45;;;;;;;40.70;27.90;;;;;;;;;;4682028;30;20050;-79
2021/07/27 01:52:15;;;;;;;37.60;25.88;;;;;;;;;;4674890;30;20488;-78
2021/07/27 01:54:51;;;;;;;42.63;27.73;;;;;;;;;;4681991;30;20063;-79
2021/07/27 01:57:16;;;;;;;40.25;26.80;;;;;;;;;;4696526;30;20029;-79
2021/07/27 01:59:46;;;;;;;40.80;28.30;;;;;;;;;;4677269;30;20377;-79
2021/07/27 02:02:12;;;;;;;38.92;26.73;;;;;;;;;;4671963;30;20039;-79
2021/07/27 02:04:37;;;;;;;40.30;27.67;;;;;;;;;;4690466;30;20053;-79
2021/07/27 02:07:03;;;;;;;43.63;28.13;;;;;;;;;;4676582;30;20877;-79
2021/07/27 02:09:37;;;;;;;42.65;28.05;;;;;;;;;;4665100;30;20042;-79
2021/07/27 02:12:03;;;;;;;39.15;25.70;;;;;;;;;;4663755;30;20480;-79
2021/07/27 02:15:03;;;;;;;41.47;27.42;;;;;;;;;;4676234;30;20124;-79
2021/07/27 02:17:13;;;;;;;41.33;27.42;;;;;;;;;;4687847;30;20495;-78
2021/07/27 02:19:39;;;;;;;39.38;26.98;;;;;;;;;;4668843;30;20046;-79
2021/07/27 02:22:04;;;;;;;41.47;26.77;;;;;;;;;;4674637;30;20033;-79
2021/07/27 02:24:30;;;;;;;40.33;27.20;;;;;;;;;;4667931;30;20049;-79
2021/07/27 02:26:55;;;;;;;40.88;27.13;;;;;;;;;;4667344;30;20058;-79
2021/07/27 02:29:21;;;;;;;41.13;26.40;;;;;;;;;;4683777;30;20033;-79
2021/07/27 02:31:46;;;;;;;41.08;26.92;;;;;;;;;;4669681;30;20112;-79
2021/07/27 02:34:11;;;;;;;39.65;26.63;;;;;;;;;;4670269;30;20049;-79
2021/07/27 02:36:37;;;;;;;37.35;26.38;;;;;;;;;;4663616;30;20041;-79
2021/07/27 02:39:05;;;;;;;41.10;26.48;;;;;;;;;;4668868;30;20049;-79
2021/07/27 02:41:31;;;;;;;36.65;25.63;;;;;;;;;;4688179;30;20052;-79
2021/07/27 02:43:58;;;;;;;35.67;25.05;;;;;;;;;;4682752;30;20056;-79
2021/07/27 02:46:23;;;;;;;38.22;25.67;;;;;;;;;;4671059;30;20061;-79
2021/07/27 02:48:49;;;;;;;36.00;24.85;;;;;;;;;;4670815;30;20072;-79
2021/07/27 02:51:14;;;;;;;36.08;24.45;;;;;;;;;;4688573;30;20045;-78
2021/07/27 02:53:39;;;;;;;36.22;25.42;;;;;;;;;;4672746;30;20088;-79
2021/07/27 02:56:05;;;;;;;35.38;25.05;;;;;;;;;;4686502;30;20156;-79
2021/07/27 02:58:31;;;;;;;34.13;23.75;;;;;;;;;;4670673;30;20388;-78
2021/07/27 03:00:57;;;;;;;32.88;23.00;;;;;;;;;;4671925;30;20052;-78
2021/07/27 03:03:22;;;;;;;34.33;23.33;;;;;;;;;;4665435;30;20124;-78
2021/07/27 03:05:48;;;;;;;30.98;22.25;;;;;;;;;;4682237;30;20053;-79
2021/07/27 03:08:19;;;;;;;33.03;22.63;;;;;;;;;;4662467;30;20294;-79
2021/07/27 03:10:45;;;;;;;31.17;22.48;;;;;;;;;;4669888;30;20049;-79
2021/07/27 03:13:10;;;;;;;30.05;21.77;;;;;;;;;;4671903;30;20049;-79
2021/07/27 03:15:36;;;;;;;34.40;22.13;;;;;;;;;;4689341;30;20050;-78
2021/07/27 03:18:01;;;;;;;32.83;22.58;;;;;;;;;;4661860;30;20596;-78
2021/07/27 03:20:28;;;;;;;29.08;21.15;;;;;;;;;;4660948;30;20042;-78
2021/07/27 03:22:55;;;;;;;31.20;21.50;;;;;;;;;;4687697;30;20105;-78
2021/07/27 03:25:21;;;;;;;27.25;20.80;;;;;;;;;;4673163;30;20136;-79
2021/07/27 03:27:49;;;;;;;32.70;20.85;;;;;;;;;;4673348;30;20066;-79
2021/07/27 03:30:18;;;;;;;29.98;20.90;;;;;;;;;;4671005;30;20052;-78
2021/07/27 03:32:45;;;;;;;28.48;20.88;;;;;;;;;;4674305;30;20044;-79
2021/07/27 03:35:17;;;;;;;26.55;19.60;;;;;;;;;;4674246;30;20145;-79
2021/07/27 03:37:43;;;;;;;27.70;20.38;;;;;;;;;;4678653;30;20087;-79
2021/07/27 03:40:09;;;;;;;25.52;18.98;;;;;;;;;;4673723;30;20804;-79
2021/07/27 03:42:35;;;;;;;26.58;19.17;;;;;;;;;;4660771;30;20049;-79
2021/07/27 03:45:00;;;;;;;24.80;19.08;;;;;;;;;;4673869;30;20037;-79
2021/07/27 03:47:26;;;;;;;26.30;19.38;;;;;;;;;;4666136;30;20177;-79
2021/07/27 03:49:54;;;;;;;26.52;19.80;;;;;;;;;;4675670;30;20080;-78
2021/07/27 03:52:19;;;;;;;26.92;18.77;;;;;;;;;;4677005;30;20044;-78
2021/07/27 03:54:44;;;;;;;29.50;18.67;;;;;;;;;;4655888;30;20380;-78
2021/07/27 03:57:10;;;;;;;29.63;18.88;;;;;;;;;;4667644;30;20034;-78
2021/07/27 03:59:35;;;;;;;26.50;18.90;;;;;;;;;;4672203;30;20046;-78
2021/07/27 04:02:01;;;;;;;25.10;18.35;;;;;;;;;;4686527;30;20471;-79
2021/07/27 04:04:27;;;;;;;27.02;19.02;;;;;;;;;;4657250;30;20049;-79
2021/07/27 04:06:53;;;;;;;28.73;18.45;;;;;;;;;;4686541;30;20040;-79
2021/07/27 04:09:19;;;;;;;24.85;18.13;;;;;;;;;;4685724;30;20049;-78
2021/07/27 04:11:44;;;;;;;28.40;19.00;;;;;;;;;;4683659;30;20050;-79
2021/07/27 04:14:10;;;;;;;24.48;18.10;;;;;;;;;;4675430;30;20050;-79
2021/07/27 04:16:40;;;;;;;23.25;16.77;;;;;;;;;;4655065;30;20530;-79
2021/07/27 04:19:06;;;;;;;26.45;18.50;;;;;;;;;;4656428;30;20179;-79
2021/07/27 04:21:32;;;;;;;23.17;17.30;;;;;;;;;;4682193;30;20119;-78
2021/07/27 04:23:58;;;;;;;24.70;17.77;;;;;;;;;;4690483;30;20041;-78
2021/07/27 04:26:24;;;;;;;25.40;17.48;;;;;;;;;;4682909;30;20053;-79
2021/07/27 04:28:50;;;;;;;26.65;17.80;;;;;;;;;;4685941;30;20046;-79
2021/07/27 04:31:16;;;;;;;21.85;16.38;;;;;;;;;;4660362;30;20034;-79
2021/07/27 04:33:41;;;;;;;21.38;17.27;;;;;;;;;;4666392;30;20057;-79
2021/07/27 04:36:10;;;;;;;26.30;17.17;;;;;;;;;;4661725;30;20049;-79
2021/07/27 04:38:36;;;;;;;25.20;17.15;;;;;;;;;;4673515;30;20207;-79
2021/07/27 04:41:06;;;;;;;22.23;16.35;;;;;;;;;;4682155;30;20539;-78
2021/07/27 04:43:33;;;;;;;23.63;16.33;;;;;;;;;;4671213;30;20137;-79
2021/07/27 04:46:03;;;;;;;27.27;17.30;;;;;;;;;;4668412;30;20041;-79
2021/07/27 04:48:28;;;;;;;23.38;16.27;;;;;;;;;;4682563;30;20563;-78
2021/07/27 04:50:54;;;;;;;23.48;16.38;;;;;;;;;;4690133;30;20099;-78
2021/07/27 04:53:23;;;;;;;23.58;16.08;;;;;;;;;;4670318;30;20033;-78
2021/07/27 04:55:50;;;;;;;24.25;15.50;;;;;;;;;;4671831;30;20091;-78
2021/07/27 04:58:16;;;;;;;22.48;16.17;;;;;;;;;;4697679;30;20037;-79
2021/07/27 05:00:41;;;;;;;25.77;15.98;;;;;;;;;;4674152;30;20527;-79
2021/07/27 05:03:07;;;;;;;21.73;15.30;;;;;;;;;;4685949;30;20136;-78
2021/07/27 05:05:32;;;;;;;24.15;16.30;;;;;;;;;;4662052;30;20503;-78
2021/07/27 05:07:59;;;;;;;23.80;16.60;;;;;;;;;;4674516;30;20045;-79
2021/07/27 05:10:25;;;;;;;24.75;16.60;;;;;;;;;;4689427;30;20043;-79
2021/07/27 05:12:50;;;;;;;20.73;15.75;;;;;;;;;;4678818;30;20200;-79
2021/07/27 05:15:16;;;;;;;23.83;16.50;;;;;;;;;;4674171;30;20073;-78
2021/07/27 05:17:52;;;;;;;19.63;15.07;;;;;;;;;;4689090;30;20078;-80
2021/07/27 05:20:17;;;;;;;23.35;15.88;;;;;;;;;;4673619;30;20042;-79
2021/07/27 05:22:42;;;;;;;21.67;15.73;;;;;;;;;;4673985;30;20049;-78
2021/07/27 05:25:08;;;;;;;23.02;15.05;;;;;;;;;;4684763;30;20037;-79
2021/07/27 05:27:35;;;;;;;20.58;15.45;;;;;;;;;;4658240;30;20058;-79
2021/07/27 05:30:01;;;;;;;20.30;15.40;;;;;;;;;;4672697;30;20101;-79
2021/07/27 05:32:27;;;;;;;23.17;15.75;;;;;;;;;;4643569;30;20173;-79
2021/07/27 05:34:53;;;;;;;23.92;16.83;;;;;;;;;;4685644;30;20052;-78
2021/07/27 05:37:18;;;;;;;21.90;15.40;;;;;;;;;;4682651;30;20029;-79
2021/07/27 05:39:44;;;;;;;22.83;16.45;;;;;;;;;;4674670;30;20041;-79
2021/07/27 05:42:10;;;;;;;23.17;16.48;;;;;;;;;;4692734;30;20052;-78
2021/07/27 05:44:35;;;;;;;22.63;16.02;;;;;;;;;;4662975;30;20060;-79
2021/07/27 05:47:01;;;;;;;23.00;16.98;;;;;;;;;;4672919;30;20038;-79
2021/07/27 05:49:27;;;;;;;22.00;15.80;;;;;;;;;;4672823;30;20045;-79
2021/07/27 05:51:53;;;;;;;23.95;16.65;;;;;;;;;;4672905;30;20137;-79
2021/07/27 05:54:19;;;;;;;22.70;16.25;;;;;;;;;;4671093;30;20128;-78
2021/07/27 05:56:49;;;;;;;24.20;17.17;;;;;;;;;;4672310;30;20542;-79
2021/07/27 05:59:17;;;;;;;25.58;16.38;;;;;;;;;;4668511;30;20038;-78
2021/07/27 06:01:42;;;;;;;26.48;16.85;;;;;;;;;;4683903;30;20491;-78
2021/07/27 06:04:09;;;;;;;24.23;16.27;;;;;;;;;;4668708;30;20123;-79
2021/07/27 06:06:35;;;;;;;25.40;16.77;;;;;;;;;;4681550;30;20047;-79
2021/07/27 06:09:03;;;;;;;22.63;16.58;;;;;;;;;;4682750;30;20063;-79
2021/07/27 06:11:30;;;;;;;24.48;16.50;;;;;;;;;;4681707;30;20492;-79
2021/07/27 06:13:56;;;;;;;23.75;16.23;;;;;;;;;;4674067;30;20054;-79
2021/07/27 06:16:22;;;;;;;23.77;16.50;;;;;;;;;;4663855;30;20099;-79
2021/07/27 06:18:48;;;;;;;24.67;17.52;;;;;;;;;;4676146;30;20065;-78
2021/07/27 06:21:13;;;;;;;21.50;15.88;;;;;;;;;;4670011;30;20034;-79
2021/07/27 06:23:38;;;;;;;24.35;15.80;;;;;;;;;;4689337;30;20100;-79
2021/07/27 06:26:05;;;;;;;22.35;15.10;;;;;;;;;;4669750;30;20469;-78
2021/07/27 06:28:30;;;;;;;23.17;16.65;;;;;;;;;;4674433;30;20403;-78
2021/07/27 06:30:56;;;;;;;29.27;16.58;;;;;;;;;;4663997;30;20049;-79
2021/07/27 06:33:21;;;;;;;20.90;14.93;;;;;;;;;;4677968;30;20129;-79
2021/07/27 06:35:47;;;;;;;19.70;15.18;;;;;;;;;;4664023;30;20050;-79
2021/07/27 06:38:12;;;;;;;20.58;14.73;;;;;;;;;;4672120;30;20060;-78
2021/07/27 06:40:38;;;;;;;23.35;15.68;;;;;;;;;;4670582;30;20050;-79
2021/07/27 06:43:03;;;;;;;21.52;16.15;;;;;;;;;;4667513;30;20041;-79
2021/07/27 06:45:29;;;;;;;22.08;15.35;;;;;;;;;;4663982;30;20188;-78
2021/07/27 06:47:54;;;;;;;22.73;15.38;;;;;;;;;;4660073;30;20471;-78
2021/07/27 06:50:19;;;;;;;23.75;14.95;;;;;;;;;;4669434;30;20050;-79
2021/07/27 06:52:45;;;;;;;23.08;16.17;;;;;;;;;;4662359;30;20049;-78
2021/07/27 06:55:10;;;;;;;22.45;16.70;;;;;;;;;;4661875;30;20499;-78
2021/07/27 06:57:36;;;;;;;21.45;16.13;;;;;;;;;;4690589;30;21816;-79
2021/07/27 07:00:01;;;;;;;23.20;16.73;;;;;;;;;;4670658;30;20042;-78
2021/07/27 07:02:30;;;;;;;21.58;15.55;;;;;;;;;;4692628;30;20037;-79
2021/07/27 07:04:58;;;;;;;23.60;16.10;;;;;;;;;;4656006;30;20403;-79
2021/07/27 07:07:24;;;;;;;24.30;16.42;;;;;;;;;;4664118;30;20038;-79
2021/07/27 07:09:49;;;;;;;21.85;15.73;;;;;;;;;;4682545;30;20156;-79
2021/07/27 07:12:15;;;;;;;21.98;15.45;;;;;;;;;;4679254;30;20100;-79
2021/07/27 07:14:40;;;;;;;23.20;14.95;;;;;;;;;;4671549;30;20420;-79
2021/07/27 07:17:08;;;;;;;21.20;15.20;;;;;;;;;;4667790;30;20113;-78
2021/07/27 07:19:34;;;;;;;22.08;15.38;;;;;;;;;;4680714;30;20037;-79
2021/07/27 07:21:59;;;;;;;24.17;16.17;;;;;;;;;;4689374;30;20048;-78
2021/07/27 07:24:25;;;;;;;26.40;16.77;;;;;;;;;;4671559;30;20503;-78
2021/07/27 07:26:50;;;;;;;22.73;16.77;;;;;;;;;;4678685;30;20061;-78
2021/07/27 07:29:15;;;;;;;21.27;15.45;;;;;;;;;;4677145;30;20506;-78
2021/07/27 07:31:41;;;;;;;24.20;16.30;;;;;;;;;;4688036;30;20392;-79
2021/07/27 07:34:06;;;;;;;27.27;16.95;;;;;;;;;;4680556;30;20128;-79
2021/07/27 07:36:32;;;;;;;26.85;17.08;;;;;;;;;;4670543;30;20049;-79
2021/07/27 07:38:57;;;;;;;25.10;16.80;;;;;;;;;;4671376;30;20037;-79
2021/07/27 07:41:24;;;;;;;24.25;17.00;;;;;;;;;;4678296;30;20193;-79
2021/07/27 07:43:49;;;;;;;25.02;15.65;;;;;;;;;;4700761;30;20045;-78
2021/07/27 07:46:15;;;;;;;24.50;16.05;;;;;;;;;;4667770;30;20049;-78
2021/07/27 07:48:40;;;;;;;25.23;17.38;;;;;;;;;;4676472;30;20049;-78
2021/07/27 07:51:06;;;;;;;26.40;18.55;;;;;;;;;;4677339;30;20033;-78
2021/07/27 07:53:32;;;;;;;23.33;16.98;;;;;;;;;;4688449;30;20697;-78
2021/07/27 07:55:57;;;;;;;24.95;18.67;;;;;;;;;;4669738;30;20046;-79
2021/07/27 07:58:23;;;;;;;23.95;18.25;;;;;;;;;;4679246;30;20045;-78
2021/07/27 08:00:48;;;;;;;24.65;19.08;;;;;;;;;;4681781;30;20037;-78
2021/07/27 08:03:13;;;;;;;26.60;19.45;;;;;;;;;;4673396;30;20492;-78
2021/07/27 08:05:39;;;;;;;26.73;18.27;;;;;;;;;;4671278;30;20524;-78
2021/07/27 08:08:04;;;;;;;24.75;19.58;;;;;;;;;;4675843;30;20041;-78
2021/07/27 08:10:30;;;;;;;25.73;18.92;;;;;;;;;;4673458;30;20616;-78
2021/07/27 08:12:55;;;;;;;29.58;19.35;;;;;;;;;;4675008;30;20099;-78
2021/07/27 08:15:25;;;;;;;29.17;19.15;;;;;;;;;;4671201;30;20084;-78
2021/07/27 08:17:51;;;;;;;25.50;19.80;;;;;;;;;;4650810;30;20132;-78
2021/07/27 08:20:16;;;;;;;23.65;18.77;;;;;;;;;;4671778;30;20117;-78
2021/07/27 08:22:42;;;;;;;25.38;19.50;;;;;;;;;;4666494;30;20096;-78
2021/07/27 08:25:15;;;;;;;27.08;19.40;;;;;;;;;;4691857;30;20045;-78
2021/07/27 08:27:41;;;;;;;24.80;18.23;;;;;;;;;;4694728;30;20120;-78
2021/07/27 08:30:08;;;;;;;21.73;17.85;;;;;;;;;;4680464;30;20573;-78
2021/07/27 08:32:33;;;;;;;26.83;18.05;;;;;;;;;;4669093;30;20061;-78
2021/07/27 08:34:58;;;;;;;24.52;17.80;;;;;;;;;;4681843;30;20065;-78
2021/07/27 08:37:24;;;;;;;19.98;17.08;;;;;;;;;;4674796;30;20551;-78
2021/07/27 08:39:49;;;;;;;20.85;16.17;;;;;;;;;;4691377;30;20046;-78
2021/07/27 08:42:16;;;;;;;21.83;15.98;;;;;;;;;;4680285;30;20076;-78
2021/07/27 08:44:43;;;;;;;19.55;15.02;;;;;;;;;;4695307;30;20072;-78
2021/07/27 08:47:09;;;;;;;19.02;14.77;;;;;;;;;;4694258;30;20041;-78
2021/07/27 08:49:35;;;;;;;22.48;16.00;;;;;;;;;;4681633;30;20073;-78
2021/07/27 08:52:01;;;;;;;18.45;16.00;;;;;;;;;;4674260;30;20102;-78
2021/07/27 08:54:27;;;;;;;21.98;15.48;;;;;;;;;;4660699;30;20038;-78
2021/07/27 08:56:53;;;;;;;19.70;15.85;;;;;;;;;;4682547;30;20045;-78
2021/07/27 08:59:21;;;;;;;21.38;15.07;;;;;;;;;;4694621;30;20068;-78
2021/07/27 09:01:47;;;;;;;19.17;15.77;;;;;;;;;;4676661;30;20133;-78
2021/07/27 09:04:14;;;;;;;20.05;14.45;;;;;;;;;;4691482;30;20124;-78
2021/07/27 09:06:39;;;;;;;32.13;20.00;;;;;;;;;;4679051;30;20103;-78
2021/07/27 09:09:09;;;;;;;20.63;15.77;;;;;;;;;;4664168;30;20049;-78
2021/07/27 09:11:46;;;;;;;19.90;16.20;;;;;;;;;;4664602;30;20038;-78
2021/07/27 09:14:14;;;;;;;22.08;16.98;;;;;;;;;;4672437;30;20041;-78
2021/07/27 09:16:58;;;;;;;17.70;14.90;;;;;;;;;;4691610;30;20048;-78
2021/07/27 09:19:24;;;;;;;19.10;15.10;;;;;;;;;;4691545;30;20056;-79
2021/07/27 09:21:50;;;;;;;20.48;15.10;;;;;;;;;;4695166;30;20503;-78
2021/07/27 09:24:22;;;;;;;19.30;15.13;;;;;;;;;;4663839;30;20139;-78
2021/07/27 09:27:02;;;;;;;21.53;16.00;;;;;;;;;;4686703;30;20057;-78
2021/07/27 09:29:30;;;;;;;22.83;15.73;;;;;;;;;;4690905;30;20038;-78
2021/07/27 09:31:57;;;;;;;18.73;16.10;;;;;;;;;;4687056;30;20048;-78
2021/07/27 09:34:27;;;;;;;17.40;15.60;;;;;;;;;;4673181;30;20544;-78
2021/07/27 09:37:07;;;;;;;18.77;15.50;;;;;;;;;;4675756;30;20141;-78
2021/07/27 09:39:34;;;;;;;19.88;15.35;;;;;;;;;;4687120;30;20038;-78
2021/07/27 09:42:01;;;;;;;19.75;16.30;;;;;;;;;;4665342;30;20037;-78
2021/07/27 09:44:29;;;;;;;17.80;15.93;;;;;;;;;;4672577;30;20041;-79
2021/07/27 09:46:56;;;;;;;19.50;16.08;;;;;;;;;;4679358;30;20038;-78
2021/07/27 09:49:22;;;;;;;18.77;15.27;;;;;;;;;;4671955;30;20037;-78
2021/07/27 09:51:49;;;;;;;17.83;15.35;;;;;;;;;;4678386;30;20563;-78
2021/07/27 09:54:14;;;;;;;20.65;15.40;;;;;;;;;;4693240;30;20491;-78
2021/07/27 09:56:44;;;;;;;17.80;15.88;;;;;;;;;;4693017;30;20112;-78
2021/07/27 09:59:09;;;;;;;18.67;15.63;;;;;;;;;;4685964;30;20042;-78
2021/07/27 10:01:37;;;;;;;18.10;16.15;;;;;;;;;;4671679;30;20056;-79
2021/07/27 10:04:03;;;;;;;16.65;14.75;;;;;;;;;;4663552;30;20072;-78
2021/07/27 10:06:44;;;;;;;17.08;14.23;;;;;;;;;;4686593;30;20097;-79
2021/07/27 10:09:09;;;;;;;17.00;13.95;;;;;;;;;;4673900;30;20040;-79
2021/07/27 10:11:37;;;;;;;18.52;13.95;;;;;;;;;;4676076;30;20475;-78
2021/07/27 10:14:10;;;;;;;16.30;12.95;;;;;;;;;;4691562;30;20100;-78
2021/07/27 10:16:37;;;;;;;17.45;12.95;;;;;;;;;;4673630;30;20045;-78
2021/07/27 10:19:19;;;;;;;19.08;13.10;;;;;;;;;;4691554;30;20124;-78
2021/07/27 10:22:00;;;;;;;18.02;12.35;;;;;;;;;;4672396;30;20664;-79
2021/07/27 10:24:41;;;;;;;15.55;12.63;;;;;;;;;;4689315;30;20042;-78
2021/07/27 10:27:18;;;;;;;16.55;12.90;;;;;;;;;;4695139;30;20112;-79
2021/07/27 10:29:43;;;;;;;17.45;13.50;;;;;;;;;;4678158;30;20081;-78
2021/07/27 10:32:16;;;;;;;16.15;13.32;;;;;;;;;;4683783;30;20068;-79
2021/07/27 10:34:43;;;;;;;20.30;12.82;;;;;;;;;;4690702;30;20034;-79
2021/07/27 10:37:13;;;;;;;16.50;12.70;;;;;;;;;;4686394;30;20034;-79
2021/07/27 10:39:50;;;;;;;15.15;12.32;;;;;;;;;;4689810;30;20053;-79
2021/07/27 10:42:17;;;;;;;18.33;13.18;;;;;;;;;;4680991;30;20073;-78
2021/07/27 10:44:42;;;;;;;17.65;13.50;;;;;;;;;;4679317;30;20022;-79
2021/07/27 10:47:08;;;;;;;15.65;12.43;;;;;;;;;;4669369;30;20091;-79
2021/07/27 10:49:33;;;;;;;17.05;13.57;;;;;;;;;;4691580;30;20064;-78
2021/07/27 10:52:01;;;;;;;15.88;13.32;;;;;;;;;;4669167;30;20053;-78
2021/07/27 10:54:31;;;;;;;15.35;13.13;;;;;;;;;;4669900;30;20718;-79
2021/07/27 10:57:05;;;;;;;13.80;9.95;;;;;;;;;;4676469;30;20373;-79
2021/07/27 10:59:35;;;;;;;12.93;7.57;;;;;;;;;;4692424;30;20041;-78
2021/07/27 11:02:11;;;;;;;11.65;7.63;;;;;;;;;;4679296;30;20037;-78
2021/07/27 11:04:37;;;;;;;15.77;7.05;;;;;;;;;;4680207;30;20044;-78
2021/07/27 11:07:17;;;;;;;8.63;5.68;;;;;;;;;;4683436;30;20041;-78
2021/07/27 11:09:54;;;;;;;9.48;5.63;;;;;;;;;;4675004;30;20045;-78
2021/07/27 11:12:38;;;;;;;7.90;5.43;;;;;;;;;;4674769;30;20128;-78
2021/07/27 11:15:13;;;;;;;11.25;6.10;;;;;;;;;;4678068;30;20037;-78
2021/07/27 11:17:49;;;;;;;10.10;6.03;;;;;;;;;;4687810;30;20029;-78
2021/07/27 11:20:22;;;;;;;9.27;6.10;;;;;;;;;;4691751;30;20740;-78
2021/07/27 11:22:49;;;;;;;9.77;5.13;;;;;;;;;;4663412;30;20052;-78
2021/07/27 11:25:23;;;;;;;8.38;5.18;;;;;;;;;;4675304;30;20049;-79
2021/07/27 11:27:49;;;;;;;11.55;5.50;;;;;;;;;;4690532;30;20056;-79
2021/07/27 11:30:16;;;;;;;12.18;5.80;;;;;;;;;;4680186;30;20403;-80
2021/07/27 11:32:47;;;;;;;8.88;5.97;;;;;;;;;;4676677;30;20496;-79
2021/07/27 11:35:17;;;;;;;7.50;5.60;;;;;;;;;;4664798;30;20149;-79
2021/07/27 11:37:44;;;;;;;8.98;6.15;;;;;;;;;;4680112;30;20097;-79
2021/07/27 11:40:25;;;;;;;8.80;5.53;;;;;;;;;;4677911;30;20057;-79
2021/07/27 11:43:12;;;;;;;11.85;6.32;;;;;;;;;;4662391;30;20045;-79
2021/07/27 11:45:42;;;;;;;8.10;6.30;;;;;;;;;;4688878;30;20033;-79
2021/07/27 11:48:08;;;;;;;8.45;5.85;;;;;;;;;;4672556;30;20865;-79
2021/07/27 11:50:39;;;;;;;7.38;5.25;;;;;;;;;;4689016;30;20108;-79
2021/07/27 11:53:08;;;;;;;8.57;5.47;;;;;;;;;;4673038;30;20049;-78
2021/07/27 11:55:38;;;;;;;7.55;5.25;;;;;;;;;;4670783;30;20037;-79
2021/07/27 11:58:05;;;;;;;8.07;5.50;;;;;;;;;;4689576;30;20030;-79
2021/07/27 12:00:32;;;;;;;7.32;5.05;;;;;;;;;;4686904;30;20113;-79
2021/07/27 12:02:58;;;;;;;8.52;6.53;;;;;;;;;;4682383;30;20102;-79
2021/07/27 12:05:24;;;;;;;8.00;5.13;;;;;;;;;;4689238;30;20851;-79
2021/07/27 12:07:49;;;;;;;8.38;6.85;;;;;;;;;;4661095;30;20106;-79
2021/07/27 12:10:16;;;;;;;9.98;7.10;;;;;;;;;;4677373;30;20050;-79
2021/07/27 12:12:44;;;;;;;9.02;7.22;;;;;;;;;;4686501;30;20045;-79
2021/07/27 12:15:15;;;;;;;9.82;7.10;;;;;;;;;;4691774;30;20049;-79
2021/07/27 12:17:41;;;;;;;10.82;6.90;;;;;;;;;;4676695;30;20064;-79
2021/07/27 12:20:08;;;;;;;9.43;6.20;;;;;;;;;;4668195;30;20034;-79
2021/07/27 12:22:34;;;;;;;8.18;5.75;;;;;;;;;;4677868;30;20045;-79
2021/07/27 12:24:59;;;;;;;8.07;6.40;;;;;;;;;;4689778;30;20049;-78
2021/07/27 12:27:24;;;;;;;7.35;5.68;;;;;;;;;;4672730;30;20070;-78
2021/07/27 12:29:50;;;;;;;10.65;5.90;;;;;;;;;;4679757;30;20625;-79
2021/07/27 12:32:15;;;;;;;9.23;6.45;;;;;;;;;;4693678;30;20057;-79
2021/07/27 12:34:41;;;;;;;11.23;6.85;;;;;;;;;;4676821;30;20049;-79
2021/07/27 12:37:10;;;;;;;7.55;5.80;;;;;;;;;;4666451;30;20061;-78
2021/07/27 12:39:35;;;;;;;8.43;6.38;;;;;;;;;;4665696;30;20749;-79
2021/07/27 12:42:00;;;;;;;7.20;5.85;;;;;;;;;;4664659;30;20136;-79
2021/07/27 12:44:26;;;;;;;8.88;5.72;;;;;;;;;;4673571;30;20100;-79
2021/07/27 12:46:51;;;;;;;7.90;5.55;;;;;;;;;;4663510;30;20069;-79
2021/07/27 12:49:17;;;;;;;8.57;5.55;;;;;;;;;;4678400;30;20566;-79
2021/07/27 12:51:46;;;;;;;8.25;5.65;;;;;;;;;;4673955;30;20054;-79
2021/07/27 12:54:11;;;;;;;6.95;5.53;;;;;;;;;;4679702;30;20124;-79
2021/07/27 12:56:37;;;;;;;8.23;5.40;;;;;;;;;;4662335;30;20124;-78
2021/07/27 12:59:04;;;;;;;6.53;4.30;;;;;;;;;;4692476;30;20029;-79
2021/07/27 13:01:29;;;;;;;7.70;4.78;;;;;;;;;;4666081;30;20126;-79
2021/07/27 13:03:55;;;;;;;8.32;5.40;;;;;;;;;;4685851;30;20132;-78
2021/07/27 13:06:20;;;;;;;7.80;6.10;;;;;;;;;;4674109;30;20125;-79
2021/07/27 13:08:46;;;;;;;9.18;6.30;;;;;;;;;;4674263;30;20046;-79
2021/07/27 13:11:12;;;;;;;11.55;6.20;;;;;;;;;;4685650;30;20625;-79
2021/07/27 13:13:38;;;;;;;9.55;6.60;;;;;;;;;;4676076;30;20729;-78
2021/07/27 13:16:03;;;;;;;9.45;5.93;;;;;;;;;;4685602;30;20046;-78
2021/07/27 13:18:29;;;;;;;11.65;6.65;;;;;;;;;;4670170;30;20100;-78
2021/07/27 13:20:54;;;;;;;9.55;6.30;;;;;;;;;;4663779;30;20046;-79
2021/07/27 13:23:20;;;;;;;9.43;6.30;;;;;;;;;;4665589;30;20404;-78
2021/07/27 13:25:45;;;;;;;8.25;6.20;;;;;;;;;;4690377;30;20160;-78
2021/07/27 13:28:11;;;;;;;9.32;5.90;;;;;;;;;;4673497;30;20081;-78
2021/07/27 13:30:36;;;;;;;7.35;5.57;;;;;;;;;;4694619;30;20053;-78
2021/07/27 13:33:01;;;;;;;8.18;5.90;;;;;;;;;;4676622;30;20137;-78
2021/07/27 13:35:27;;;;;;;9.85;5.70;;;;;;;;;;4663785;30;20033;-79
2021/07/27 13:37:52;;;;;;;8.82;5.95;;;;;;;;;;4690952;30;20100;-78
2021/07/27 13:40:19;;;;;;;9.10;6.18;;;;;;;;;;4665236;30;20037;-78
2021/07/27 13:42:44;;;;;;;9.25;6.47;;;;;;;;;;4675613;30;20042;-78
2021/07/27 13:45:10;;;;;;;9.38;6.95;;;;;;;;;;4690711;30;20041;-78
2021/07/27 13:47:35;;;;;;;10.38;7.07;;;;;;;;;;4651479;30;20180;-78
2021/07/27 13:50:01;;;;;;;10.63;7.60;;;;;;;;;;4691940;30;20921;-78
2021/07/27 13:52:28;;;;;;;13.13;8.40;;;;;;;;;;4693026;30;20057;-78
2021/07/27 13:54:53;;;;;;;10.85;8.50;;;;;;;;;;4694941;30;20069;-78
2021/07/27 13:57:19;;;;;;;11.52;9.77;;;;;;;;;;4676897;30;20069;-78
2021/07/27 13:59:45;;;;;;;12.75;9.57;;;;;;;;;;4678235;30;20880;-78
2021/07/27 14:02:10;;;;;;;13.23;9.25;;;;;;;;;;4678943;30;20102;-78
2021/07/27 14:04:36;;;;;;;12.90;9.05;;;;;;;;;;4681353;30;20091;-78
2021/07/27 14:07:02;;;;;;;11.77;9.30;;;;;;;;;;4679825;30;20131;-78
2021/07/27 14:09:27;;;;;;;12.90;10.43;;;;;;;;;;4672844;30;20046;-78
2021/07/27 14:11:53;;;;;;;15.90;11.15;;;;;;;;;;4682042;30;20048;-78
2021/07/27 14:14:18;;;;;;;14.02;10.80;;;;;;;;;;4667251;30;20411;-78
2021/07/27 14:16:44;;;;;;;13.45;10.38;;;;;;;;;;4678593;30;20140;-78
2021/07/27 14:19:09;;;;;;;14.38;11.40;;;;;;;;;;4676324;30;20495;-78
2021/07/27 14:21:35;;;;;;;14.00;10.90;;;;;;;;;;4665766;30;20161;-78
2021/07/27 14:24:00;;;;;;;15.00;11.02;;;;;;;;;;4665472;30;20108;-78
2021/07/27 14:26:25;;;;;;;15.27;11.30;;;;;;;;;;4654828;30;20491;-78
2021/07/27 14:28:51;;;;;;;15.38;11.27;;;;;;;;;;4680975;30;20064;-78
2021/07/27 14:31:17;;;;;;;12.73;10.45;;;;;;;;;;4689707;30;20041;-78
2021/07/27 14:33:42;;;;;;;14.57;11.02;;;;;;;;;;4690278;30;20104;-78
2021/07/27 14:36:09;;;;;;;12.98;10.73;;;;;;;;;;4693198;30;20116;-78
2021/07/27 14:38:35;;;;;;;14.30;10.27;;;;;;;;;;4679982;30;20499;-79